Terminal Aerodrome Forecast
Issued by NWS Lake Charles, LA

Home | Current Version | Previous Version | Text Only | Print | Product List | Glossary On
Versions: 1 2 3 4 5 6 7 8 9 10 11 12 13 14 15 16 17 18 19 20 21 22 23 24 25 26 27 28
878
FTUS44 KLCH 202113 AAB
TAFLCH
TAF AMD
KLCH 202113Z 2021/2118 31015G25KT P6SM -SHRA SCT015 BKN045 OVC060
     FM202300 31010G18KT P6SM -SHRA OVC050
     FM210400 VRB05KT 5SM BR VCSH OVC015
      TEMPO 2104/2108 2SM SHRA OVC007
     FM210900 VRB03KT 1SM BR OVC007
     FM211500 VRB03KT 4SM BR BKN015=

USA.gov is the U.S. government's official web portal to all federal, state and local government web resources and services.